Greensboro, NC (27455)

6:14 AM EST on February 08, 2016 (GMT -0500)
Bell Orchard Drive | | Change Station
CLOSE
Current Station
Personal Weather Station
Location: Greensboro, NC
Elevation: 876 ft
Nearby Weather Stations

Elev 876 ft 36.13 °N, 79.80 °W | Updated 4 seconds ago

Partly Cloudy
Partly Cloudy
33.2 °F
Feels Like 33 °F
N
0.0
Wind Variable Wind from WSW
Gusts 0.0 mph

Today
High -- | Low -- °F
--% Chance of Precip.
Yesterday
High -- | Low -- °F
Precip. -- in
Pressure 29.81 in
Visibility 10.0 miles
Clouds Few 18000 ft
Windchill 33 °F
Dew Point 28 °F
Humidity 80%
Rainfall 0.00 in
Snow Depth Not available.
7:14 AM 5:52 PM
Waning Crescent, 0% visible
METAR KGSO 081054Z 21003KT 10SM FEW180 M02/M05 A2980 RMK AO2 SLP094 T10221050
Pressure 29.81 in
Visibility 10.0 miles
Clouds Few 18000 ft
Windchill 33 °F
Dew Point 28 °F
Humidity 80%
Rainfall 0.00 in
Snow Depth Not available.
7:14 AM 5:52 PM
Waning Crescent, 0% visible
METAR KGSO 081054Z 21003KT 10SM FEW180 M02/M05 A2980 RMK AO2 SLP094 T10221050

10-Day Weather Forecast

Almanac

Astronomy

Feb. 08, 2016 Rise Set
Actual Time
Civil Twilight
Nautical Twilight
Astronomical Twilight
Moon
Length of Visible Light
Length of Day
Tomorrow will be .
, % of the Moon is Illuminated

Today's Extremes

State Highs State Lows

Community

WunderPhotos

Upload Photos

1,891,420 photos uploaded!

WunderBlog® & News

Nearby

Air Quality

  Air Quality AQ Index Pollutant
Not available.

Snow Depth

Station Depth Elevation

Earthquake Activity

City Distance Mag. Time & Date
Minimum magnitude displayed is 2.5.

Coastal Water Temperatures

Place Temperature

Stations

Nearby Weather Stations

Station Location Temp. Windchill Dew Point Humidity Wind Precip. Elev Updated Type
                   

Watches & Warnings

There are currently no watches in effect.